createdAt,value
2018-10-16T00:00:02.256Z,39.8
2018-10-16T00:05:01.202Z,40.0
2018-10-16T00:15:01.206Z,41.8
2018-10-16T00:20:01.226Z,42.0
2018-10-16T00:25:01.247Z,42.6
2018-10-16T00:30:02.234Z,42.8
2018-10-16T00:35:01.180Z,42.9
2018-10-16T00:40:01.181Z,42.1
2018-10-16T00:45:01.219Z,42.5
2018-10-16T00:50:01.477Z,42.4
2018-10-16T00:55:01.750Z,42.4
2018-10-16T01:00:01.310Z,41.5
2018-10-16T01:05:01.220Z,40.8
2018-10-16T01:10:01.291Z,39.7
2018-10-16T01:15:01.191Z,40.2
2018-10-16T01:20:01.191Z,40.2
2018-10-16T01:25:01.203Z,40.9
2018-10-16T01:30:01.203Z,41.9
2018-10-16T01:35:01.205Z,43.0
2018-10-16T01:40:01.197Z,41.7
2018-10-16T01:45:01.229Z,40.0
2018-10-16T01:50:01.336Z,40.0
2018-10-16T01:55:01.212Z,39.6
2018-10-16T02:00:01.272Z,38.6
2018-10-16T02:05:01.214Z,38.9
2018-10-16T02:10:01.215Z,40.2
2018-10-16T02:15:01.216Z,39.8
2018-10-16T02:25:01.333Z,40.7
2018-10-16T02:30:01.245Z,40.9
2018-10-16T02:35:01.219Z,41.0
2018-10-16T02:40:01.217Z,42.0
2018-10-16T02:45:01.291Z,42.6
2018-10-16T02:50:01.292Z,43.6
2018-10-16T02:55:01.233Z,43.6
2018-10-16T03:00:01.247Z,43.5
2018-10-16T03:05:01.230Z,42.8
2018-10-16T03:10:01.234Z,42.6
2018-10-16T03:15:01.239Z,41.6
2018-10-16T03:20:01.238Z,42.0
2018-10-16T03:25:01.246Z,42.4
2018-10-16T03:30:01.247Z,43.1
2018-10-16T03:35:01.248Z,42.9
2018-10-16T03:40:01.249Z,42.5
2018-10-16T03:45:06.235Z,42.2
2018-10-16T03:50:06.499Z,41.8
2018-10-16T03:55:06.431Z,41.4
2018-10-16T04:00:06.438Z,42.0
2018-10-16T04:05:01.277Z,42.0
2018-10-16T04:10:01.527Z,41.8
2018-10-16T04:15:06.259Z,41.7
2018-10-16T04:20:01.278Z,41.2
2018-10-16T04:25:01.289Z,39.9
2018-10-16T04:30:06.317Z,39.0
2018-10-16T04:36:01.442Z,39.1
2018-10-16T04:46:01.242Z,38.6
2018-10-16T04:51:01.250Z,39.0
2018-10-16T04:56:01.460Z,39.9
2018-10-16T05:01:01.309Z,40.0
2018-10-16T05:06:01.376Z,40.2
2018-10-16T05:11:01.270Z,41.8
2018-10-16T05:16:01.533Z,42.2
2018-10-16T05:21:01.275Z,42.5
2018-10-16T05:26:01.283Z,42.2
2018-10-16T05:31:01.389Z,41.6
2018-10-16T05:36:06.256Z,40.7
2018-10-16T05:41:06.251Z,40.3
2018-10-16T05:46:06.259Z,40.1
2018-10-16T05:51:01.291Z,40.5
2018-10-16T05:57:01.302Z,41.2
2018-10-16T06:02:01.301Z,41.2
2018-10-16T06:07:01.241Z,40.9
2018-10-16T06:12:01.297Z,41.1
2018-10-16T06:17:01.246Z,41.2
2018-10-16T06:22:01.252Z,41.2
2018-10-16T06:32:01.286Z,42.6
2018-10-16T06:37:01.269Z,42.7
2018-10-16T06:42:06.439Z,43.1
2018-10-16T06:47:06.385Z,43.4
2018-10-16T06:52:06.439Z,43.9
2018-10-16T06:57:06.247Z,43.5
2018-10-16T07:02:01.425Z,44.7
2018-10-16T07:07:01.716Z,45.0
2018-10-16T07:12:01.293Z,46.1
2018-10-16T07:18:01.242Z,46.4
2018-10-16T07:23:01.248Z,48.6
2018-10-16T07:28:01.310Z,49.0
2018-10-16T07:33:01.315Z,50.0
2018-10-16T07:38:01.678Z,50.8
2018-10-16T07:43:01.339Z,51.0
2018-10-16T07:48:01.457Z,50.5
2018-10-16T07:53:01.246Z,50.5
2018-10-16T07:58:01.516Z,50.4
2018-10-16T08:03:01.244Z,50.2
2018-10-16T08:08:06.264Z,50.2
2018-10-16T08:13:06.304Z,50.4
2018-10-16T08:18:06.244Z,50.3
2018-10-16T08:23:01.303Z,50.0
2018-10-16T08:28:06.245Z,52.0
2018-10-16T08:33:06.247Z,52.4
2018-10-16T08:38:01.270Z,52.1
2018-10-16T08:50:02.472Z,48.8
2018-10-16T09:10:01.590Z,49.0
2018-10-16T09:15:01.219Z,49.7
2018-10-16T09:20:00.728Z,49.7
2018-10-16T09:25:01.551Z,49.7
2018-10-16T09:30:00.716Z,49.9
2018-10-16T09:35:00.670Z,50.2
2018-10-16T09:40:00.687Z,49.9
2018-10-16T09:45:00.509Z,50.0
2018-10-16T09:50:00.503Z,51.8
2018-10-16T09:55:00.446Z,51.8
2018-10-16T10:00:01.069Z,51.2
2018-10-16T10:05:00.481Z,51.1
2018-10-16T10:10:00.826Z,51.3
2018-10-16T10:15:00.501Z,49.4
2018-10-16T10:20:00.628Z,49.4
2018-10-16T10:25:00.792Z,49.9
2018-10-16T10:30:00.485Z,49.6
2018-10-16T10:35:00.969Z,49.7
2018-10-16T10:40:00.708Z,49.6
2018-10-16T10:45:00.718Z,49.1
2018-10-16T10:50:01.641Z,49.0
2018-10-16T10:55:00.479Z,49.3
2018-10-16T11:00:00.451Z,48.5
2018-10-16T11:10:01.730Z,48.4
2018-10-16T11:15:00.724Z,48.7
2018-10-16T11:20:00.790Z,48.7
2018-10-16T11:25:00.564Z,48.8
2018-10-16T11:30:00.635Z,48.9
2018-10-16T11:35:00.700Z,48.6
2018-10-16T11:40:00.501Z,47.8
2018-10-16T11:45:00.803Z,47.6
2018-10-16T11:50:00.615Z,47.6
2018-10-16T11:55:00.525Z,47.4
2018-10-16T12:00:00.488Z,47.4
2018-10-16T12:05:00.664Z,47.2
2018-10-16T12:10:00.452Z,46.8
2018-10-16T12:15:00.559Z,45.7
2018-10-16T12:20:01.534Z,45.2
2018-10-16T12:25:00.634Z,44.6
2018-10-16T12:30:01.464Z,44.5
2018-10-16T12:35:02.111Z,43.9
2018-10-16T12:40:00.657Z,43.8
2018-10-16T12:45:00.897Z,43.5
2018-10-16T12:50:00.511Z,43.4
2018-10-16T12:55:00.517Z,43.0
2018-10-16T13:00:00.702Z,43.8
2018-10-16T13:05:00.919Z,44.4
2018-10-16T13:10:00.490Z,44.9
2018-10-16T13:15:00.495Z,45.6
2018-10-16T13:20:00.787Z,45.7
2018-10-16T13:25:00.492Z,45.5
2018-10-16T13:30:01.353Z,45.1
2018-10-16T13:35:02.427Z,44.8
2018-10-16T13:40:00.696Z,44.1
2018-10-16T13:45:00.563Z,44.1
2018-10-16T13:50:00.589Z,44.1
2018-10-16T13:55:00.477Z,44.3
2018-10-16T14:00:00.516Z,43.9
2018-10-16T14:05:00.862Z,44.1
2018-10-16T14:10:03.438Z,44.0
2018-10-16T14:15:00.697Z,43.8
2018-10-16T14:20:00.574Z,44.1
2018-10-16T14:25:00.478Z,44.8
2018-10-16T14:30:00.591Z,44.8
2018-10-16T14:35:00.513Z,45.2
2018-10-16T14:40:01.565Z,45.6
2018-10-16T14:45:00.500Z,45.0
2018-10-16T14:50:00.601Z,45.2
2018-10-16T14:55:00.509Z,45.2
2018-10-16T15:00:00.534Z,45.0
2018-10-16T15:05:00.493Z,44.5
2018-10-16T15:10:00.993Z,44.7
2018-10-16T15:15:00.814Z,44.4
2018-10-16T15:20:01.088Z,44.2
2018-10-16T15:25:00.502Z,44.0
2018-10-16T15:30:00.552Z,44.5
2018-10-16T15:40:00.758Z,44.1
2018-10-16T15:45:01.243Z,44.2
2018-10-16T15:50:02.217Z,44.2
2018-10-16T15:55:00.525Z,44.2
2018-10-16T16:00:00.649Z,45.2
2018-10-16T16:05:00.513Z,46.0
2018-10-16T16:10:00.676Z,45.6
2018-10-16T16:15:00.969Z,45.8
2018-10-16T16:20:00.915Z,45.4
2018-10-16T16:25:00.524Z,44.2
2018-10-16T16:30:00.666Z,43.1
2018-10-16T16:35:00.722Z,43.0
2018-10-16T16:40:00.702Z,42.0
2018-10-16T16:45:00.528Z,42.3
2018-10-16T16:50:00.619Z,42.3
2018-10-16T16:55:00.724Z,42.9
2018-10-16T17:00:00.542Z,43.2
2018-10-16T17:05:00.541Z,44.1
2018-10-16T17:15:00.545Z,43.5
2018-10-16T17:20:00.636Z,43.3
2018-10-16T17:25:00.858Z,42.8
2018-10-16T17:30:00.639Z,41.9
2018-10-16T17:35:00.555Z,40.9
2018-10-16T17:40:00.594Z,41.0
2018-10-16T17:45:00.755Z,41.2
2018-10-16T17:50:00.606Z,41.5
2018-10-16T17:55:00.585Z,42.4
2018-10-16T18:00:01.038Z,43.0
2018-10-16T18:05:00.592Z,43.5
2018-10-16T18:10:00.604Z,42.9
2018-10-16T18:15:00.709Z,42.6
2018-10-16T18:20:00.596Z,42.4
2018-10-16T18:25:00.612Z,42.9
2018-10-16T18:30:01.199Z,42.4
2018-10-16T18:35:00.658Z,42.8
2018-10-16T18:40:00.875Z,42.8
2018-10-16T18:45:00.825Z,42.9
2018-10-16T18:50:00.612Z,43.0
2018-10-16T18:55:00.614Z,44.0
2018-10-16T19:00:03.392Z,44.8
2018-10-16T19:05:00.687Z,46.0
2018-10-16T19:10:00.651Z,46.5
2018-10-16T19:15:00.739Z,46.1
2018-10-16T19:20:00.849Z,45.8
2018-10-16T19:25:00.614Z,45.6
2018-10-16T19:30:01.009Z,45.3
2018-10-16T19:35:02.328Z,45.4
2018-10-16T19:40:00.648Z,45.1
2018-10-16T19:45:00.744Z,44.7
2018-10-16T19:50:01.471Z,43.2
2018-10-16T19:55:00.631Z,41.8
2018-10-16T20:00:01.245Z,40.0
2018-10-16T20:05:01.105Z,39.8
2018-10-16T20:10:00.672Z,40.6
2018-10-16T20:15:00.614Z,42.2
2018-10-16T20:20:00.639Z,43.8
2018-10-16T20:25:00.726Z,46.0
2018-10-16T20:30:01.144Z,47.6
2018-10-16T20:35:00.658Z,46.2
2018-10-16T20:40:00.644Z,44.8
2018-10-16T20:45:00.653Z,43.2
2018-10-16T20:50:00.648Z,42.4
2018-10-16T20:55:00.789Z,40.8
2018-10-16T21:00:00.735Z,40.3
2018-10-16T21:05:01.066Z,39.9
2018-10-16T21:10:00.681Z,39.4
2018-10-16T21:15:00.670Z,37.4
2018-10-16T21:20:00.659Z,36.1
2018-10-16T21:25:00.818Z,35.7
2018-10-16T21:30:00.759Z,35.7
2018-10-16T21:35:00.820Z,36.0
2018-10-16T21:40:00.982Z,35.7
2018-10-16T21:45:00.712Z,35.4
2018-10-16T21:50:00.754Z,35.2
2018-10-16T21:55:00.841Z,33.1
2018-10-16T22:00:01.251Z,32.3
2018-10-16T22:05:00.753Z,32.4
2018-10-16T22:10:00.656Z,32.9
2018-10-16T22:15:00.667Z,33.6
2018-10-16T22:20:00.660Z,35.5
2018-10-16T22:25:01.083Z,36.1
2018-10-16T22:30:00.670Z,36.2
2018-10-16T22:40:00.786Z,36.7
2018-10-16T22:45:00.670Z,34.9
2018-10-16T22:50:00.677Z,33.4
2018-10-16T22:55:00.928Z,31.9
2018-10-16T23:00:00.671Z,32.1
2018-10-16T23:05:00.872Z,30.0
2018-10-16T23:10:00.688Z,31.1
2018-10-16T23:15:00.708Z,31.4
2018-10-16T23:20:00.713Z,32.8
2018-10-16T23:25:00.849Z,31.7
2018-10-16T23:30:00.683Z,30.5
2018-10-16T23:35:00.840Z,29.1
2018-10-16T23:40:01.251Z,28.9
2018-10-16T23:45:00.719Z,27.6
2018-10-16T23:50:00.725Z,26.8
2018-10-16T23:55:00.860Z,27.2
